sensor_id;sensor_type;location;lat;lon;timestamp;P1;durP1;ratioP1;P2;durP2;ratioP2
18520;SDS011;9390;51.244;6.982;2022-12-29T00:01:37;8.70;;;3.90;;
18520;SDS011;9390;51.244;6.982;2022-12-29T00:04:09;7.18;;;3.42;;
18520;SDS011;9390;51.244;6.982;2022-12-29T00:06:43;7.50;;;3.58;;
18520;SDS011;9390;51.244;6.982;2022-12-29T00:09:15;10.52;;;3.78;;
18520;SDS011;9390;51.244;6.982;2022-12-29T00:11:48;11.77;;;4.47;;
18520;SDS011;9390;51.244;6.982;2022-12-29T00:14:20;8.75;;;3.72;;
18520;SDS011;9390;51.244;6.982;2022-12-29T00:17:09;8.27;;;3.35;;
18520;SDS011;9390;51.244;6.982;2022-12-29T00:19:41;10.07;;;4.03;;
18520;SDS011;9390;51.244;6.982;2022-12-29T00:22:30;9.45;;;3.47;;
18520;SDS011;9390;51.244;6.982;2022-12-29T00:25:19;12.13;;;3.72;;
18520;SDS011;9390;51.244;6.982;2022-12-29T00:28:14;7.05;;;3.13;;
18520;SDS011;9390;51.244;6.982;2022-12-29T00:31:04;6.68;;;2.97;;
18520;SDS011;9390;51.244;6.982;2022-12-29T00:33:52;7.60;;;3.35;;
18520;SDS011;9390;51.244;6.982;2022-12-29T00:36:41;8.18;;;3.05;;
18520;SDS011;9390;51.244;6.982;2022-12-29T00:39:13;8.10;;;3.25;;
18520;SDS011;9390;51.244;6.982;2022-12-29T00:42:05;6.45;;;2.60;;
18520;SDS011;9390;51.244;6.982;2022-12-29T00:44:56;6.35;;;2.55;;
18520;SDS011;9390;51.244;6.982;2022-12-29T00:47:28;5.90;;;2.58;;
18520;SDS011;9390;51.244;6.982;2022-12-29T00:49:59;8.25;;;2.55;;
18520;SDS011;9390;51.244;6.982;2022-12-29T00:52:29;6.38;;;2.42;;
18520;SDS011;9390;51.244;6.982;2022-12-29T00:55:01;7.90;;;2.65;;
18520;SDS011;9390;51.244;6.982;2022-12-29T00:57:32;6.32;;;2.70;;
18520;SDS011;9390;51.244;6.982;2022-12-29T01:00:05;5.50;;;2.28;;
18520;SDS011;9390;51.244;6.982;2022-12-29T01:02:37;6.35;;;2.25;;
18520;SDS011;9390;51.244;6.982;2022-12-29T01:05:09;5.45;;;2.13;;
18520;SDS011;9390;51.244;6.982;2022-12-29T01:07:40;3.47;;;1.83;;
18520;SDS011;9390;51.244;6.982;2022-12-29T01:10:11;5.28;;;2.22;;
18520;SDS011;9390;51.244;6.982;2022-12-29T01:12:42;5.05;;;1.95;;
18520;SDS011;9390;51.244;6.982;2022-12-29T01:15:16;5.70;;;2.00;;
18520;SDS011;9390;51.244;6.982;2022-12-29T01:17:47;6.80;;;2.20;;
18520;SDS011;9390;51.244;6.982;2022-12-29T01:20:19;6.28;;;1.98;;
18520;SDS011;9390;51.244;6.982;2022-12-29T01:22:50;4.65;;;1.92;;
18520;SDS011;9390;51.244;6.982;2022-12-29T01:25:22;4.13;;;1.60;;
18520;SDS011;9390;51.244;6.982;2022-12-29T01:27:53;4.63;;;1.88;;
18520;SDS011;9390;51.244;6.982;2022-12-29T01:30:26;7.18;;;1.80;;
18520;SDS011;9390;51.244;6.982;2022-12-29T01:32:57;2.85;;;1.58;;
18520;SDS011;9390;51.244;6.982;2022-12-29T01:35:29;7.35;;;1.65;;
18520;SDS011;9390;51.244;6.982;2022-12-29T01:38:00;2.70;;;1.25;;
18520;SDS011;9390;51.244;6.982;2022-12-29T01:40:31;2.90;;;1.50;;
18520;SDS011;9390;51.244;6.982;2022-12-29T01:43:04;3.05;;;1.38;;
18520;SDS011;9390;51.244;6.982;2022-12-29T01:45:37;1.98;;;1.20;;
18520;SDS011;9390;51.244;6.982;2022-12-29T01:48:08;3.95;;;1.35;;
18520;SDS011;9390;51.244;6.982;2022-12-29T01:50:41;4.10;;;1.15;;
18520;SDS011;9390;51.244;6.982;2022-12-29T01:53:16;2.05;;;1.20;;
18520;SDS011;9390;51.244;6.982;2022-12-29T01:55:50;2.58;;;1.10;;
18520;SDS011;9390;51.244;6.982;2022-12-29T01:58:24;2.90;;;1.17;;
18520;SDS011;9390;51.244;6.982;2022-12-29T02:00:59;2.05;;;1.20;;
18520;SDS011;9390;51.244;6.982;2022-12-29T02:03:31;3.35;;;1.10;;
18520;SDS011;9390;51.244;6.982;2022-12-29T02:06:03;2.50;;;1.17;;
18520;SDS011;9390;51.244;6.982;2022-12-29T02:08:38;2.22;;;1.08;;
18520;SDS011;9390;51.244;6.982;2022-12-29T02:11:10;2.85;;;1.00;;
18520;SDS011;9390;51.244;6.982;2022-12-29T02:13:42;3.38;;;1.02;;
18520;SDS011;9390;51.244;6.982;2022-12-29T02:16:17;3.10;;;1.15;;
18520;SDS011;9390;51.244;6.982;2022-12-29T02:18:58;2.55;;;1.10;;
18520;SDS011;9390;51.244;6.982;2022-12-29T02:21:41;2.03;;;1.20;;
18520;SDS011;9390;51.244;6.982;2022-12-29T02:24:28;2.58;;;1.40;;
18520;SDS011;9390;51.244;6.982;2022-12-29T02:27:15;2.53;;;1.30;;
18520;SDS011;9390;51.244;6.982;2022-12-29T02:33:02;3.53;;;1.13;;
18520;SDS011;9390;51.244;6.982;2022-12-29T02:35:37;2.63;;;1.17;;
18520;SDS011;9390;51.244;6.982;2022-12-29T02:38:15;1.67;;;1.10;;
18520;SDS011;9390;51.244;6.982;2022-12-29T02:40:53;3.08;;;1.20;;
18520;SDS011;9390;51.244;6.982;2022-12-29T02:43:29;7.18;;;1.63;;
18520;SDS011;9390;51.244;6.982;2022-12-29T02:46:06;3.20;;;1.10;;
18520;SDS011;9390;51.244;6.982;2022-12-29T02:48:43;4.05;;;1.40;;
18520;SDS011;9390;51.244;6.982;2022-12-29T02:51:18;8.27;;;1.60;;
18520;SDS011;9390;51.244;6.982;2022-12-29T02:53:52;4.90;;;1.15;;
18520;SDS011;9390;51.244;6.982;2022-12-29T02:56:41;4.13;;;1.25;;
18520;SDS011;9390;51.244;6.982;2022-12-29T02:59:12;4.25;;;1.17;;
18520;SDS011;9390;51.244;6.982;2022-12-29T03:01:51;5.28;;;1.20;;
18520;SDS011;9390;51.244;6.982;2022-12-29T03:04:53;2.92;;;1.40;;
18520;SDS011;9390;51.244;6.982;2022-12-29T03:07:35;7.20;;;1.35;;
18520;SDS011;9390;51.244;6.982;2022-12-29T03:10:14;3.75;;;1.40;;
18520;SDS011;9390;51.244;6.982;2022-12-29T03:12:54;4.43;;;1.10;;
18520;SDS011;9390;51.244;6.982;2022-12-29T03:15:49;2.80;;;1.20;;
18520;SDS011;9390;51.244;6.982;2022-12-29T03:18:43;1.85;;;1.08;;
18520;SDS011;9390;51.244;6.982;2022-12-29T03:21:19;7.50;;;1.30;;
18520;SDS011;9390;51.244;6.982;2022-12-29T03:24:16;2.45;;;1.02;;
18520;SDS011;9390;51.244;6.982;2022-12-29T03:26:49;3.53;;;1.10;;
18520;SDS011;9390;51.244;6.982;2022-12-29T03:29:20;8.15;;;1.40;;
18520;SDS011;9390;51.244;6.982;2022-12-29T03:31:53;2.72;;;1.13;;
18520;SDS011;9390;51.244;6.982;2022-12-29T03:34:26;4.65;;;1.25;;
18520;SDS011;9390;51.244;6.982;2022-12-29T03:36:59;3.00;;;1.13;;
18520;SDS011;9390;51.244;6.982;2022-12-29T03:39:32;3.88;;;1.10;;
18520;SDS011;9390;51.244;6.982;2022-12-29T03:42:04;3.55;;;1.10;;
18520;SDS011;9390;51.244;6.982;2022-12-29T03:44:38;1.92;;;1.00;;
18520;SDS011;9390;51.244;6.982;2022-12-29T03:47:12;1.80;;;1.08;;
18520;SDS011;9390;51.244;6.982;2022-12-29T03:49:46;2.88;;;1.08;;
18520;SDS011;9390;51.244;6.982;2022-12-29T03:52:17;2.58;;;0.85;;
18520;SDS011;9390;51.244;6.982;2022-12-29T03:54:49;2.90;;;0.93;;
18520;SDS011;9390;51.244;6.982;2022-12-29T03:57:20;2.50;;;1.10;;
18520;SDS011;9390;51.244;6.982;2022-12-29T03:59:51;3.20;;;0.90;;
18520;SDS011;9390;51.244;6.982;2022-12-29T04:02:23;2.15;;;0.98;;
18520;SDS011;9390;51.244;6.982;2022-12-29T04:04:55;4.40;;;1.00;;
18520;SDS011;9390;51.244;6.982;2022-12-29T04:07:27;2.33;;;1.00;;
18520;SDS011;9390;51.244;6.982;2022-12-29T04:09:58;2.78;;;1.02;;
18520;SDS011;9390;51.244;6.982;2022-12-29T04:12:30;1.17;;;0.80;;
18520;SDS011;9390;51.244;6.982;2022-12-29T04:15:01;3.03;;;1.00;;
18520;SDS011;9390;51.244;6.982;2022-12-29T04:17:32;2.40;;;1.15;;
18520;SDS011;9390;51.244;6.982;2022-12-29T04:20:05;2.90;;;0.80;;
18520;SDS011;9390;51.244;6.982;2022-12-29T04:22:58;2.63;;;1.10;;
18520;SDS011;9390;51.244;6.982;2022-12-29T04:25:31;1.98;;;0.88;;
18520;SDS011;9390;51.244;6.982;2022-12-29T04:28:03;1.42;;;0.90;;
18520;SDS011;9390;51.244;6.982;2022-12-29T04:30:35;1.65;;;1.00;;
18520;SDS011;9390;51.244;6.982;2022-12-29T04:33:06;1.08;;;0.90;;
18520;SDS011;9390;51.244;6.982;2022-12-29T04:35:39;1.60;;;0.90;;
18520;SDS011;9390;51.244;6.982;2022-12-29T04:38:10;1.48;;;0.80;;
18520;SDS011;9390;51.244;6.982;2022-12-29T04:40:42;1.05;;;0.77;;
18520;SDS011;9390;51.244;6.982;2022-12-29T04:43:14;1.08;;;0.73;;
18520;SDS011;9390;51.244;6.982;2022-12-29T04:45:46;2.67;;;0.90;;
18520;SDS011;9390;51.244;6.982;2022-12-29T04:48:18;1.63;;;1.00;;
18520;SDS011;9390;51.244;6.982;2022-12-29T04:50:50;1.88;;;0.80;;
18520;SDS011;9390;51.244;6.982;2022-12-29T04:53:22;1.98;;;0.90;;
18520;SDS011;9390;51.244;6.982;2022-12-29T04:55:53;2.10;;;0.88;;
18520;SDS011;9390;51.244;6.982;2022-12-29T04:58:25;3.33;;;0.90;;
18520;SDS011;9390;51.244;6.982;2022-12-29T05:00:56;1.35;;;0.82;;
18520;SDS011;9390;51.244;6.982;2022-12-29T05:03:27;4.32;;;1.00;;
18520;SDS011;9390;51.244;6.982;2022-12-29T05:06:00;1.88;;;0.82;;
18520;SDS011;9390;51.244;6.982;2022-12-29T05:08:32;2.30;;;1.00;;
18520;SDS011;9390;51.244;6.982;2022-12-29T05:11:03;4.18;;;1.10;;
18520;SDS011;9390;51.244;6.982;2022-12-29T05:13:35;3.15;;;0.80;;
18520;SDS011;9390;51.244;6.982;2022-12-29T05:16:06;4.35;;;0.90;;
18520;SDS011;9390;51.244;6.982;2022-12-29T05:18:38;3.55;;;1.00;;
18520;SDS011;9390;51.244;6.982;2022-12-29T05:21:10;3.20;;;0.90;;
18520;SDS011;9390;51.244;6.982;2022-12-29T05:23:42;2.35;;;0.98;;
18520;SDS011;9390;51.244;6.982;2022-12-29T05:26:13;1.35;;;0.80;;
18520;SDS011;9390;51.244;6.982;2022-12-29T05:28:44;2.83;;;0.75;;
18520;SDS011;9390;51.244;6.982;2022-12-29T05:31:16;2.15;;;1.00;;
18520;SDS011;9390;51.244;6.982;2022-12-29T05:33:47;4.72;;;1.20;;
18520;SDS011;9390;51.244;6.982;2022-12-29T05:36:20;3.10;;;0.95;;
18520;SDS011;9390;51.244;6.982;2022-12-29T05:38:51;2.83;;;1.00;;
18520;SDS011;9390;51.244;6.982;2022-12-29T05:41:22;1.77;;;0.88;;
18520;SDS011;9390;51.244;6.982;2022-12-29T05:43:54;3.05;;;1.00;;
18520;SDS011;9390;51.244;6.982;2022-12-29T05:46:25;5.68;;;1.20;;
18520;SDS011;9390;51.244;6.982;2022-12-29T05:48:57;5.70;;;1.20;;
18520;SDS011;9390;51.244;6.982;2022-12-29T05:51:29;3.92;;;1.17;;
18520;SDS011;9390;51.244;6.982;2022-12-29T05:54:01;1.15;;;0.90;;
18520;SDS011;9390;51.244;6.982;2022-12-29T05:56:32;2.13;;;1.10;;
18520;SDS011;9390;51.244;6.982;2022-12-29T05:59:03;3.17;;;0.90;;
18520;SDS011;9390;51.244;6.982;2022-12-29T06:01:35;3.08;;;0.93;;
18520;SDS011;9390;51.244;6.982;2022-12-29T06:04:06;1.23;;;0.75;;
18520;SDS011;9390;51.244;6.982;2022-12-29T06:06:39;7.10;;;1.08;;
18520;SDS011;9390;51.244;6.982;2022-12-29T06:09:10;3.38;;;1.15;;
18520;SDS011;9390;51.244;6.982;2022-12-29T06:11:42;4.18;;;1.20;;
18520;SDS011;9390;51.244;6.982;2022-12-29T06:14:13;4.88;;;0.95;;
18520;SDS011;9390;51.244;6.982;2022-12-29T06:16:45;3.22;;;0.82;;
18520;SDS011;9390;51.244;6.982;2022-12-29T06:19:16;7.50;;;1.00;;
18520;SDS011;9390;51.244;6.982;2022-12-29T06:21:49;1.77;;;0.80;;
18520;SDS011;9390;51.244;6.982;2022-12-29T06:24:21;4.00;;;0.93;;
18520;SDS011;9390;51.244;6.982;2022-12-29T06:26:52;4.22;;;0.73;;
18520;SDS011;9390;51.244;6.982;2022-12-29T06:29:23;2.72;;;0.85;;
18520;SDS011;9390;51.244;6.982;2022-12-29T06:31:55;1.67;;;0.82;;
18520;SDS011;9390;51.244;6.982;2022-12-29T06:34:27;9.10;;;1.05;;
18520;SDS011;9390;51.244;6.982;2022-12-29T06:37:00;4.32;;;0.70;;
18520;SDS011;9390;51.244;6.982;2022-12-29T06:39:32;2.45;;;0.90;;
18520;SDS011;9390;51.244;6.982;2022-12-29T06:42:03;1.67;;;0.98;;
18520;SDS011;9390;51.244;6.982;2022-12-29T06:44:35;3.75;;;1.08;;
18520;SDS011;9390;51.244;6.982;2022-12-29T06:47:06;3.80;;;0.88;;
18520;SDS011;9390;51.244;6.982;2022-12-29T06:49:37;2.88;;;0.93;;
18520;SDS011;9390;51.244;6.982;2022-12-29T06:52:11;2.17;;;0.90;;
18520;SDS011;9390;51.244;6.982;2022-12-29T06:54:42;4.80;;;1.00;;
18520;SDS011;9390;51.244;6.982;2022-12-29T06:57:13;2.78;;;0.93;;
18520;SDS011;9390;51.244;6.982;2022-12-29T06:59:45;5.22;;;1.10;;
18520;SDS011;9390;51.244;6.982;2022-12-29T07:02:16;9.02;;;1.23;;
18520;SDS011;9390;51.244;6.982;2022-12-29T07:04:49;3.00;;;0.95;;
18520;SDS011;9390;51.244;6.982;2022-12-29T07:07:22;1.92;;;0.90;;
18520;SDS011;9390;51.244;6.982;2022-12-29T07:09:53;3.38;;;1.30;;
18520;SDS011;9390;51.244;6.982;2022-12-29T07:12:25;2.88;;;0.93;;
18520;SDS011;9390;51.244;6.982;2022-12-29T07:15:00;7.28;;;1.10;;
18520;SDS011;9390;51.244;6.982;2022-12-29T07:17:31;4.47;;;1.00;;
18520;SDS011;9390;51.244;6.982;2022-12-29T07:20:03;4.22;;;1.15;;
18520;SDS011;9390;51.244;6.982;2022-12-29T07:22:36;2.63;;;0.80;;
18520;SDS011;9390;51.244;6.982;2022-12-29T07:25:08;5.10;;;1.10;;
18520;SDS011;9390;51.244;6.982;2022-12-29T07:27:40;4.15;;;1.20;;
18520;SDS011;9390;51.244;6.982;2022-12-29T07:30:11;7.25;;;1.30;;
18520;SDS011;9390;51.244;6.982;2022-12-29T07:32:43;3.03;;;1.17;;
18520;SDS011;9390;51.244;6.982;2022-12-29T07:35:14;3.67;;;1.00;;
18520;SDS011;9390;51.244;6.982;2022-12-29T07:37:47;6.38;;;1.10;;
18520;SDS011;9390;51.244;6.982;2022-12-29T07:40:18;6.35;;;1.40;;
18520;SDS011;9390;51.244;6.982;2022-12-29T07:42:50;2.55;;;1.02;;
18520;SDS011;9390;51.244;6.982;2022-12-29T07:45:21;3.75;;;1.00;;
18520;SDS011;9390;51.244;6.982;2022-12-29T07:47:52;5.40;;;1.05;;
18520;SDS011;9390;51.244;6.982;2022-12-29T07:50:24;6.43;;;1.08;;
18520;SDS011;9390;51.244;6.982;2022-12-29T07:52:56;6.97;;;1.33;;
18520;SDS011;9390;51.244;6.982;2022-12-29T07:55:28;8.60;;;1.23;;
18520;SDS011;9390;51.244;6.982;2022-12-29T07:57:59;5.15;;;1.17;;
18520;SDS011;9390;51.244;6.982;2022-12-29T08:00:30;5.45;;;1.38;;
18520;SDS011;9390;51.244;6.982;2022-12-29T08:03:02;3.65;;;1.00;;
18520;SDS011;9390;51.244;6.982;2022-12-29T08:05:33;8.57;;;1.48;;
18520;SDS011;9390;51.244;6.982;2022-12-29T08:08:06;5.53;;;1.17;;
18520;SDS011;9390;51.244;6.982;2022-12-29T08:10:38;5.43;;;1.17;;
18520;SDS011;9390;51.244;6.982;2022-12-29T08:13:09;10.57;;;1.40;;
18520;SDS011;9390;51.244;6.982;2022-12-29T08:15:42;5.20;;;1.27;;
18520;SDS011;9390;51.244;6.982;2022-12-29T08:18:13;8.27;;;1.65;;
18520;SDS011;9390;51.244;6.982;2022-12-29T08:20:45;7.22;;;1.70;;
18520;SDS011;9390;51.244;6.982;2022-12-29T08:23:17;6.68;;;1.50;;
18520;SDS011;9390;51.244;6.982;2022-12-29T08:25:56;6.40;;;1.13;;
18520;SDS011;9390;51.244;6.982;2022-12-29T08:28:28;6.93;;;1.42;;
18520;SDS011;9390;51.244;6.982;2022-12-29T08:31:00;5.00;;;1.25;;
18520;SDS011;9390;51.244;6.982;2022-12-29T08:33:32;5.18;;;1.20;;
18520;SDS011;9390;51.244;6.982;2022-12-29T08:36:03;10.23;;;1.48;;
18520;SDS011;9390;51.244;6.982;2022-12-29T08:38:38;9.65;;;1.33;;
18520;SDS011;9390;51.244;6.982;2022-12-29T08:41:09;6.50;;;1.10;;
18520;SDS011;9390;51.244;6.982;2022-12-29T08:43:41;4.65;;;1.23;;
18520;SDS011;9390;51.244;6.982;2022-12-29T08:46:12;7.72;;;1.17;;
18520;SDS011;9390;51.244;6.982;2022-12-29T08:48:44;11.50;;;2.30;;
18520;SDS011;9390;51.244;6.982;2022-12-29T08:51:15;9.70;;;1.65;;
18520;SDS011;9390;51.244;6.982;2022-12-29T08:53:48;8.60;;;1.58;;
18520;SDS011;9390;51.244;6.982;2022-12-29T08:56:20;6.95;;;1.88;;
18520;SDS011;9390;51.244;6.982;2022-12-29T08:58:53;8.32;;;1.50;;
18520;SDS011;9390;51.244;6.982;2022-12-29T09:01:25;6.55;;;1.40;;
18520;SDS011;9390;51.244;6.982;2022-12-29T09:03:56;5.30;;;1.23;;
18520;SDS011;9390;51.244;6.982;2022-12-29T09:06:28;6.55;;;1.30;;
18520;SDS011;9390;51.244;6.982;2022-12-29T09:09:00;8.13;;;1.73;;
18520;SDS011;9390;51.244;6.982;2022-12-29T09:11:32;8.13;;;1.33;;
18520;SDS011;9390;51.244;6.982;2022-12-29T09:14:03;5.88;;;1.35;;
18520;SDS011;9390;51.244;6.982;2022-12-29T09:16:35;5.72;;;1.10;;
18520;SDS011;9390;51.244;6.982;2022-12-29T09:19:07;8.68;;;1.67;;
18520;SDS011;9390;51.244;6.982;2022-12-29T09:21:38;6.50;;;1.60;;
18520;SDS011;9390;51.244;6.982;2022-12-29T09:24:11;11.18;;;1.58;;
18520;SDS011;9390;51.244;6.982;2022-12-29T09:26:43;13.15;;;2.05;;
18520;SDS011;9390;51.244;6.982;2022-12-29T09:29:15;8.90;;;1.70;;
18520;SDS011;9390;51.244;6.982;2022-12-29T09:31:46;6.15;;;1.50;;
18520;SDS011;9390;51.244;6.982;2022-12-29T09:34:17;8.50;;;1.70;;
18520;SDS011;9390;51.244;6.982;2022-12-29T09:36:49;5.35;;;1.42;;
18520;SDS011;9390;51.244;6.982;2022-12-29T09:39:22;6.18;;;1.30;;
18520;SDS011;9390;51.244;6.982;2022-12-29T09:44:30;9.20;;;1.50;;
18520;SDS011;9390;51.244;6.982;2022-12-29T09:47:15;4.45;;;1.15;;
18520;SDS011;9390;51.244;6.982;2022-12-29T09:49:48;9.48;;;2.08;;
18520;SDS011;9390;51.244;6.982;2022-12-29T09:52:22;7.88;;;1.27;;
18520;SDS011;9390;51.244;6.982;2022-12-29T09:57:29;8.07;;;1.30;;
18520;SDS011;9390;51.244;6.982;2022-12-29T10:00:05;5.80;;;1.23;;
18520;SDS011;9390;51.244;6.982;2022-12-29T10:02:43;11.27;;;1.52;;
18520;SDS011;9390;51.244;6.982;2022-12-29T10:05:20;10.13;;;2.17;;
18520;SDS011;9390;51.244;6.982;2022-12-29T10:08:03;5.18;;;1.08;;
18520;SDS011;9390;51.244;6.982;2022-12-29T10:10:54;9.80;;;2.05;;
18520;SDS011;9390;51.244;6.982;2022-12-29T10:13:28;9.38;;;1.35;;
18520;SDS011;9390;51.244;6.982;2022-12-29T10:16:08;8.85;;;1.52;;
18520;SDS011;9390;51.244;6.982;2022-12-29T10:18:54;12.05;;;1.60;;
18520;SDS011;9390;51.244;6.982;2022-12-29T10:21:39;5.72;;;1.17;;
18520;SDS011;9390;51.244;6.982;2022-12-29T10:26:51;9.93;;;1.63;;
18520;SDS011;9390;51.244;6.982;2022-12-29T10:29:24;6.68;;;1.50;;
18520;SDS011;9390;51.244;6.982;2022-12-29T10:31:58;6.40;;;1.42;;
18520;SDS011;9390;51.244;6.982;2022-12-29T10:34:31;11.00;;;1.50;;
18520;SDS011;9390;51.244;6.982;2022-12-29T10:37:09;5.97;;;1.30;;
18520;SDS011;9390;51.244;6.982;2022-12-29T10:39:44;13.63;;;1.83;;
18520;SDS011;9390;51.244;6.982;2022-12-29T10:42:20;7.55;;;1.17;;
18520;SDS011;9390;51.244;6.982;2022-12-29T10:44:58;5.60;;;1.10;;
18520;SDS011;9390;51.244;6.982;2022-12-29T10:47:31;5.95;;;1.42;;
18520;SDS011;9390;51.244;6.982;2022-12-29T10:50:06;10.77;;;1.52;;
18520;SDS011;9390;51.244;6.982;2022-12-29T10:52:38;7.40;;;1.35;;
18520;SDS011;9390;51.244;6.982;2022-12-29T10:55:11;7.20;;;1.33;;
18520;SDS011;9390;51.244;6.982;2022-12-29T10:57:45;7.55;;;1.52;;
18520;SDS011;9390;51.244;6.982;2022-12-29T11:03:06;6.82;;;1.50;;
18520;SDS011;9390;51.244;6.982;2022-12-29T11:05:46;9.40;;;1.63;;
18520;SDS011;9390;51.244;6.982;2022-12-29T11:08:21;12.95;;;1.45;;
18520;SDS011;9390;51.244;6.982;2022-12-29T11:10:59;9.00;;;1.90;;
18520;SDS011;9390;51.244;6.982;2022-12-29T11:13:34;11.25;;;1.63;;
18520;SDS011;9390;51.244;6.982;2022-12-29T11:16:06;6.15;;;1.38;;
18520;SDS011;9390;51.244;6.982;2022-12-29T11:18:38;8.05;;;1.35;;
18520;SDS011;9390;51.244;6.982;2022-12-29T11:21:23;7.75;;;1.40;;
18520;SDS011;9390;51.244;6.982;2022-12-29T11:24:02;7.95;;;1.23;;
18520;SDS011;9390;51.244;6.982;2022-12-29T11:26:34;8.65;;;1.42;;
18520;SDS011;9390;51.244;6.982;2022-12-29T11:29:23;10.90;;;1.40;;
18520;SDS011;9390;51.244;6.982;2022-12-29T11:31:56;7.72;;;1.33;;
18520;SDS011;9390;51.244;6.982;2022-12-29T11:34:30;13.57;;;1.80;;
18520;SDS011;9390;51.244;6.982;2022-12-29T11:37:04;9.40;;;1.60;;
18520;SDS011;9390;51.244;6.982;2022-12-29T11:39:38;8.68;;;1.70;;
18520;SDS011;9390;51.244;6.982;2022-12-29T11:42:13;10.02;;;1.60;;
18520;SDS011;9390;51.244;6.982;2022-12-29T11:44:47;9.77;;;1.48;;
18520;SDS011;9390;51.244;6.982;2022-12-29T11:47:21;9.75;;;1.50;;
18520;SDS011;9390;51.244;6.982;2022-12-29T11:49:55;9.65;;;1.40;;
18520;SDS011;9390;51.244;6.982;2022-12-29T11:52:29;13.50;;;1.73;;
18520;SDS011;9390;51.244;6.982;2022-12-29T11:55:03;11.20;;;2.05;;
18520;SDS011;9390;51.244;6.982;2022-12-29T11:57:36;6.28;;;1.30;;
18520;SDS011;9390;51.244;6.982;2022-12-29T12:00:15;11.68;;;1.60;;
18520;SDS011;9390;51.244;6.982;2022-12-29T12:02:50;9.10;;;1.60;;
18520;SDS011;9390;51.244;6.982;2022-12-29T12:05:28;14.60;;;1.80;;
18520;SDS011;9390;51.244;6.982;2022-12-29T12:08:09;9.30;;;1.58;;
18520;SDS011;9390;51.244;6.982;2022-12-29T12:10:43;6.50;;;1.30;;
18520;SDS011;9390;51.244;6.982;2022-12-29T12:13:18;14.52;;;1.55;;
18520;SDS011;9390;51.244;6.982;2022-12-29T12:15:56;9.75;;;1.45;;
18520;SDS011;9390;51.244;6.982;2022-12-29T12:18:34;14.38;;;1.85;;
18520;SDS011;9390;51.244;6.982;2022-12-29T12:21:12;7.00;;;1.80;;
18520;SDS011;9390;51.244;6.982;2022-12-29T12:23:57;12.48;;;1.75;;
18520;SDS011;9390;51.244;6.982;2022-12-29T12:26:37;8.55;;;1.35;;
18520;SDS011;9390;51.244;6.982;2022-12-29T12:29:13;10.00;;;2.33;;
18520;SDS011;9390;51.244;6.982;2022-12-29T12:31:49;7.78;;;1.83;;
18520;SDS011;9390;51.244;6.982;2022-12-29T12:34:24;10.23;;;1.40;;
18520;SDS011;9390;51.244;6.982;2022-12-29T12:37:12;11.77;;;1.80;;
18520;SDS011;9390;51.244;6.982;2022-12-29T12:39:56;10.55;;;1.70;;
18520;SDS011;9390;51.244;6.982;2022-12-29T12:42:40;9.77;;;1.33;;
18520;SDS011;9390;51.244;6.982;2022-12-29T12:45:25;12.18;;;2.28;;
18520;SDS011;9390;51.244;6.982;2022-12-29T12:48:08;7.82;;;1.40;;
18520;SDS011;9390;51.244;6.982;2022-12-29T12:50:49;9.27;;;1.67;;
18520;SDS011;9390;51.244;6.982;2022-12-29T12:53:35;8.30;;;1.83;;
18520;SDS011;9390;51.244;6.982;2022-12-29T12:56:22;11.38;;;1.70;;
18520;SDS011;9390;51.244;6.982;2022-12-29T12:59:09;7.38;;;1.38;;
18520;SDS011;9390;51.244;6.982;2022-12-29T13:01:50;8.00;;;1.70;;
18520;SDS011;9390;51.244;6.982;2022-12-29T13:04:35;8.68;;;1.27;;
18520;SDS011;9390;51.244;6.982;2022-12-29T13:07:19;7.47;;;1.55;;
18520;SDS011;9390;51.244;6.982;2022-12-29T13:09:57;9.85;;;1.20;;
18520;SDS011;9390;51.244;6.982;2022-12-29T13:12:46;11.98;;;1.98;;
18520;SDS011;9390;51.244;6.982;2022-12-29T13:15:27;6.63;;;1.45;;
18520;SDS011;9390;51.244;6.982;2022-12-29T13:18:11;7.43;;;1.20;;
18520;SDS011;9390;51.244;6.982;2022-12-29T13:20:52;10.93;;;1.73;;
18520;SDS011;9390;51.244;6.982;2022-12-29T13:23:26;8.07;;;1.70;;
18520;SDS011;9390;51.244;6.982;2022-12-29T13:26:03;5.38;;;1.35;;
18520;SDS011;9390;51.244;6.982;2022-12-29T13:28:40;6.18;;;1.27;;
18520;SDS011;9390;51.244;6.982;2022-12-29T13:31:24;9.45;;;1.50;;
18520;SDS011;9390;51.244;6.982;2022-12-29T13:34:03;5.07;;;1.20;;
18520;SDS011;9390;51.244;6.982;2022-12-29T13:36:47;9.23;;;1.63;;
18520;SDS011;9390;51.244;6.982;2022-12-29T13:39:23;5.60;;;1.40;;
18520;SDS011;9390;51.244;6.982;2022-12-29T13:41:57;10.38;;;1.40;;
18520;SDS011;9390;51.244;6.982;2022-12-29T13:44:30;8.20;;;1.65;;
18520;SDS011;9390;51.244;6.982;2022-12-29T13:47:06;9.13;;;1.20;;
18520;SDS011;9390;51.244;6.982;2022-12-29T13:49:45;10.73;;;1.90;;
18520;SDS011;9390;51.244;6.982;2022-12-29T13:52:21;9.90;;;1.38;;
18520;SDS011;9390;51.244;6.982;2022-12-29T13:54:59;12.80;;;1.85;;
18520;SDS011;9390;51.244;6.982;2022-12-29T13:57:35;8.65;;;1.65;;
18520;SDS011;9390;51.244;6.982;2022-12-29T14:00:11;12.77;;;1.90;;
18520;SDS011;9390;51.244;6.982;2022-12-29T14:03:02;8.30;;;1.40;;
18520;SDS011;9390;51.244;6.982;2022-12-29T14:05:44;10.20;;;1.90;;
18520;SDS011;9390;51.244;6.982;2022-12-29T14:08:18;10.63;;;1.38;;
18520;SDS011;9390;51.244;6.982;2022-12-29T14:10:49;7.55;;;1.25;;
18520;SDS011;9390;51.244;6.982;2022-12-29T14:13:22;7.03;;;1.08;;
18520;SDS011;9390;51.244;6.982;2022-12-29T14:15:55;4.15;;;1.30;;
18520;SDS011;9390;51.244;6.982;2022-12-29T14:20:59;8.80;;;1.40;;
18520;SDS011;9390;51.244;6.982;2022-12-29T14:23:39;5.47;;;1.25;;
18520;SDS011;9390;51.244;6.982;2022-12-29T14:26:12;6.88;;;1.15;;
18520;SDS011;9390;51.244;6.982;2022-12-29T14:28:46;5.15;;;1.48;;
18520;SDS011;9390;51.244;6.982;2022-12-29T14:31:34;7.75;;;1.50;;
18520;SDS011;9390;51.244;6.982;2022-12-29T14:34:25;11.30;;;2.33;;
18520;SDS011;9390;51.244;6.982;2022-12-29T14:36:59;10.50;;;1.27;;
18520;SDS011;9390;51.244;6.982;2022-12-29T14:39:34;5.78;;;1.30;;
18520;SDS011;9390;51.244;6.982;2022-12-29T14:42:10;7.60;;;1.10;;
18520;SDS011;9390;51.244;6.982;2022-12-29T14:44:47;8.60;;;1.48;;
18520;SDS011;9390;51.244;6.982;2022-12-29T14:47:20;10.45;;;1.35;;
18520;SDS011;9390;51.244;6.982;2022-12-29T14:49:53;9.25;;;1.55;;
18520;SDS011;9390;51.244;6.982;2022-12-29T14:52:26;7.57;;;1.33;;
18520;SDS011;9390;51.244;6.982;2022-12-29T14:55:00;7.65;;;1.17;;
18520;SDS011;9390;51.244;6.982;2022-12-29T14:58:00;10.90;;;1.45;;
18520;SDS011;9390;51.244;6.982;2022-12-29T15:00:33;5.28;;;1.38;;
18520;SDS011;9390;51.244;6.982;2022-12-29T15:03:06;7.03;;;1.42;;
18520;SDS011;9390;51.244;6.982;2022-12-29T15:05:41;9.23;;;1.33;;
18520;SDS011;9390;51.244;6.982;2022-12-29T15:08:17;5.88;;;1.30;;
18520;SDS011;9390;51.244;6.982;2022-12-29T15:10:53;6.35;;;1.45;;
18520;SDS011;9390;51.244;6.982;2022-12-29T15:13:32;4.18;;;1.35;;
18520;SDS011;9390;51.244;6.982;2022-12-29T15:16:13;6.85;;;1.33;;
18520;SDS011;9390;51.244;6.982;2022-12-29T15:18:52;8.30;;;1.60;;
18520;SDS011;9390;51.244;6.982;2022-12-29T15:21:25;9.70;;;1.30;;
18520;SDS011;9390;51.244;6.982;2022-12-29T15:23:58;6.95;;;2.00;;
18520;SDS011;9390;51.244;6.982;2022-12-29T15:26:37;4.05;;;1.30;;
18520;SDS011;9390;51.244;6.982;2022-12-29T15:32:00;5.60;;;1.30;;
18520;SDS011;9390;51.244;6.982;2022-12-29T15:34:32;7.65;;;1.20;;
18520;SDS011;9390;51.244;6.982;2022-12-29T15:37:05;6.30;;;1.45;;
18520;SDS011;9390;51.244;6.982;2022-12-29T15:39:37;8.48;;;1.60;;
18520;SDS011;9390;51.244;6.982;2022-12-29T15:42:15;8.63;;;2.15;;
18520;SDS011;9390;51.244;6.982;2022-12-29T15:44:51;5.13;;;1.20;;
18520;SDS011;9390;51.244;6.982;2022-12-29T15:47:23;5.07;;;1.08;;
18520;SDS011;9390;51.244;6.982;2022-12-29T15:52:29;10.38;;;1.38;;
18520;SDS011;9390;51.244;6.982;2022-12-29T15:55:02;7.38;;;1.42;;
18520;SDS011;9390;51.244;6.982;2022-12-29T15:57:41;4.67;;;1.10;;
18520;SDS011;9390;51.244;6.982;2022-12-29T16:00:23;4.95;;;1.30;;
18520;SDS011;9390;51.244;6.982;2022-12-29T16:02:56;5.80;;;1.40;;
18520;SDS011;9390;51.244;6.982;2022-12-29T16:05:33;8.02;;;1.58;;
18520;SDS011;9390;51.244;6.982;2022-12-29T16:08:20;9.98;;;1.73;;
18520;SDS011;9390;51.244;6.982;2022-12-29T16:10:53;6.80;;;1.50;;